APL Qingdao — 9V9376 — position and weather

sailwx.info

Track history (hours):
 
Tides and Currents Weather Stations Pressure Air Temp Water Temp Dewpoint Dewpoint Depression Visibility Wind Speed Wind Dir Waves Ship Positions

APL Qingdao

Last reported at 2017-Oct-17 22:00 UTC. Time now 2017-Oct-17 22:29 UTC.
Position N 22°35' E 114°17'.

Length 354 m; draft 12.2 m.

Type: Cargo ship. MMSI: 566408000.

Date/timePositionNaut miles runAvg speedWind from/ knotsBaromVisibWave heightAir tempDewpointWater temp
2017-Oct-17 22:00N 22°35' E 114°17'0 0.1
2017-Oct-17 21:30N 22°35' E 114°17'0 0.1
2017-Oct-17 21:00N 22°35' E 114°17'0 0.1
2017-Oct-17 20:30N 22°35' E 114°17'0 0.1
2017-Oct-17 20:00N 22°35' E 114°17'0 0.1
2017-Oct-17 19:30N 22°35' E 114°17'0 0.0
2017-Oct-17 19:00N 22°35' E 114°17'0 0.1
2017-Oct-17 18:30N 22°35' E 114°17'0 0.0
2017-Oct-17 18:00N 22°35' E 114°17'0 0.0
2017-Oct-17 17:30N 22°35' E 114°17'0 0.0
2017-Oct-17 17:00N 22°35' E 114°17'0 0.0
2017-Oct-17 16:30N 22°35' E 114°17'0 0.1
2017-Oct-17 15:57N 22°35' E 114°17'0 0.1
2017-Oct-17 15:30N 22°35' E 114°17'0 0.0
2017-Oct-17 15:00N 22°35' E 114°17'0 0.1
2017-Oct-17 14:30N 22°35' E 114°17'0 0.1
2017-Oct-17 14:00N 22°35' E 114°17'0 0.4
2017-Oct-17 13:30N 22°35' E 114°17'3 6.7
2017-Oct-17 13:00N 22°33' E 114°20'713.9
2017-Oct-17 12:30N 22°29' E 114°26'5 9.1
2017-Oct-17 12:00N 22°26' E 114°30'4 8.0
2017-Oct-17 11:31N 22°25' E 114°34'0 0.1
2017-Oct-17 10:58N 22°25' E 114°34'0 0.0
2017-Oct-17 10:28N 22°25' E 114°34'0 0.0
2017-Oct-17 09:58N 22°25' E 114°34'0 0.1
2017-Oct-17 09:25N 22°25' E 114°34'0 0.0
2017-Oct-17 08:55N 22°25' E 114°34'0 0.0
2017-Oct-17 08:28N 22°25' E 114°34'0 0.0
2017-Oct-17 07:58N 22°25' E 114°34'0 0.0
2017-Oct-17 07:28N 22°25' E 114°34'0 0.0
2017-Oct-17 06:58N 22°25' E 114°34'0 0.0
2017-Oct-17 06:28N 22°25' E 114°34'0 0.1
2017-Oct-17 05:58N 22°24' E 114°34'0 0.0
2017-Oct-17 05:28N 22°24' E 114°34'0 0.0
2017-Oct-17 04:54N 22°24' E 114°34'0 0.0
2017-Oct-17 04:28N 22°24' E 114°34'0 0.0
2017-Oct-17 03:58N 22°24' E 114°34'0 0.0
2017-Oct-17 03:13N 22°24' E 114°34'0 0.0
2017-Oct-17 02:49N 22°24' E 114°34'0 0.0
2017-Oct-17 02:28N 22°24' E 114°34'0 0.0
2017-Oct-17 00:35N 22°24' E 114°34'0 0.2
2017-Oct-17 00:28N 22°24' E 114°34'0 0.0
2017-Oct-16 23:58N 22°24' E 114°34'0 0.0
2017-Oct-16 23:28N 22°24' E 114°34'0 0.0
2017-Oct-16 22:57N 22°24' E 114°34'0 0.0
2017-Oct-16 22:28N 22°24' E 114°34'0 0.0
2017-Oct-16 21:58N 22°24' E 114°34'0 0.1
2017-Oct-16 21:28N 22°24' E 114°34'0 0.1
2017-Oct-16 20:55N 22°24' E 114°34'0 0.0
2017-Oct-16 20:25N 22°24' E 114°34'0 0.0
2017-Oct-16 19:58N 22°24' E 114°34'0 0.0
2017-Oct-16 19:28N 22°24' E 114°34'0 0.1
2017-Oct-16 18:58N 22°25' E 114°34'0 0.1
2017-Oct-16 18:28N 22°24' E 114°34'0 0.0
2017-Oct-16 17:52N 22°24' E 114°34'0 0.1
2017-Oct-16 17:28N 22°24' E 114°34'0 0.0
2017-Oct-16 16:58N 22°24' E 114°34'0 0.0
2017-Oct-16 16:28N 22°24' E 114°34'0 0.0
2017-Oct-16 15:58N 22°24' E 114°34'0 0.0
2017-Oct-16 15:28N 22°25' E 114°34'0 0.0
2017-Oct-16 14:58N 22°25' E 114°34'0 0.0
2017-Oct-16 14:28N 22°25' E 114°34'0 0.0
2017-Oct-16 13:28N 22°24' E 114°34'0 0.0
2017-Oct-16 12:55N 22°25' E 114°34'0 0.0
2017-Oct-16 12:22N 22°25' E 114°34'0 0.0
2017-Oct-16 11:55N 22°24' E 114°34'0 0.0
2017-Oct-16 11:25N 22°25' E 114°34'0 0.1
2017-Oct-16 10:58N 22°24' E 114°34'0 0.1
2017-Oct-16 10:28N 22°25' E 114°34'0 0.0
2017-Oct-16 09:58N 22°24' E 114°34'24412.0
2017-Oct-15 13:43N 23°56' E 118°39'  
Track history (hours):
 
Tides and Currents Weather Stations Pressure Air Temp Water Temp Dewpoint Dewpoint Depression Visibility Wind Speed Wind Dir Waves Ship Positions

APL Qingdao

Last reported at 2017-Oct-17 22:00 UTC. Time now 2017-Oct-17 22:29 UTC.
Position N 22°35' E 114°17'.

Length 354 m; draft 12.2 m.

Type: Cargo ship. MMSI: 566408000.

Date/timePositionNaut miles runAvg speedWind from/ knotsBaromVisibWave heightAir tempDewpointWater temp
2017-Oct-17 22:00N 22°35' E 114°17'0 0.1
2017-Oct-17 21:30N 22°35' E 114°17'0 0.1
2017-Oct-17 21:00N 22°35' E 114°17'0 0.1
2017-Oct-17 20:30N 22°35' E 114°17'0 0.1
2017-Oct-17 20:00N 22°35' E 114°17'0 0.1
2017-Oct-17 19:30N 22°35' E 114°17'0 0.0
2017-Oct-17 19:00N 22°35' E 114°17'0 0.1
2017-Oct-17 18:30N 22°35' E 114°17'0 0.0
2017-Oct-17 18:00N 22°35' E 114°17'0 0.0
2017-Oct-17 17:30N 22°35' E 114°17'0 0.0
2017-Oct-17 17:00N 22°35' E 114°17'0 0.0
2017-Oct-17 16:30N 22°35' E 114°17'0 0.1
2017-Oct-17 15:57N 22°35' E 114°17'0 0.1
2017-Oct-17 15:30N 22°35' E 114°17'0 0.0
2017-Oct-17 15:00N 22°35' E 114°17'0 0.1
2017-Oct-17 14:30N 22°35' E 114°17'0 0.1
2017-Oct-17 14:00N 22°35' E 114°17'0 0.4
2017-Oct-17 13:30N 22°35' E 114°17'3 6.7
2017-Oct-17 13:00N 22°33' E 114°20'713.9
2017-Oct-17 12:30N 22°29' E 114°26'5 9.1
2017-Oct-17 12:00N 22°26' E 114°30'4 8.0
2017-Oct-17 11:31N 22°25' E 114°34'0 0.1
2017-Oct-17 10:58N 22°25' E 114°34'0 0.0
2017-Oct-17 10:28N 22°25' E 114°34'0 0.0
2017-Oct-17 09:58N 22°25' E 114°34'0 0.1
2017-Oct-17 09:25N 22°25' E 114°34'0 0.0
2017-Oct-17 08:55N 22°25' E 114°34'0 0.0
2017-Oct-17 08:28N 22°25' E 114°34'0 0.0
2017-Oct-17 07:58N 22°25' E 114°34'0 0.0
2017-Oct-17 07:28N 22°25' E 114°34'0 0.0
2017-Oct-17 06:58N 22°25' E 114°34'0 0.0
2017-Oct-17 06:28N 22°25' E 114°34'0 0.1
2017-Oct-17 05:58N 22°24' E 114°34'0 0.0
2017-Oct-17 05:28N 22°24' E 114°34'0 0.0
2017-Oct-17 04:54N 22°24' E 114°34'0 0.0
2017-Oct-17 04:28N 22°24' E 114°34'0 0.0
2017-Oct-17 03:58N 22°24' E 114°34'0 0.0
2017-Oct-17 03:13N 22°24' E 114°34'0 0.0
2017-Oct-17 02:49N 22°24' E 114°34'0 0.0
2017-Oct-17 02:28N 22°24' E 114°34'0 0.0
2017-Oct-17 00:35N 22°24' E 114°34'0 0.2
2017-Oct-17 00:28N 22°24' E 114°34'0 0.0
2017-Oct-16 23:58N 22°24' E 114°34'0 0.0
2017-Oct-16 23:28N 22°24' E 114°34'0 0.0
2017-Oct-16 22:57N 22°24' E 114°34'0 0.0
2017-Oct-16 22:28N 22°24' E 114°34'0 0.0
2017-Oct-16 21:58N 22°24' E 114°34'0 0.1
2017-Oct-16 21:28N 22°24' E 114°34'0 0.1
2017-Oct-16 20:55N 22°24' E 114°34'0 0.0
2017-Oct-16 20:25N 22°24' E 114°34'0 0.0
2017-Oct-16 19:58N 22°24' E 114°34'0 0.0
2017-Oct-16 19:28N 22°24' E 114°34'0 0.1
2017-Oct-16 18:58N 22°25' E 114°34'0 0.1
2017-Oct-16 18:28N 22°24' E 114°34'0 0.0
2017-Oct-16 17:52N 22°24' E 114°34'0 0.1
2017-Oct-16 17:28N 22°24' E 114°34'0 0.0
2017-Oct-16 16:58N 22°24' E 114°34'0 0.0
2017-Oct-16 16:28N 22°24' E 114°34'0 0.0
2017-Oct-16 15:58N 22°24' E 114°34'0 0.0
2017-Oct-16 15:28N 22°25' E 114°34'0 0.0
2017-Oct-16 14:58N 22°25' E 114°34'0 0.0
2017-Oct-16 14:28N 22°25' E 114°34'0 0.0
2017-Oct-16 13:28N 22°24' E 114°34'0 0.0
2017-Oct-16 12:55N 22°25' E 114°34'0 0.0
2017-Oct-16 12:22N 22°25' E 114°34'0 0.0
2017-Oct-16 11:55N 22°24' E 114°34'0 0.0
2017-Oct-16 11:25N 22°25' E 114°34'0 0.1
2017-Oct-16 10:58N 22°24' E 114°34'0 0.1
2017-Oct-16 10:28N 22°25' E 114°34'0 0.0
2017-Oct-16 09:58N 22°24' E 114°34'24412.0
2017-Oct-15 13:43N 23°56' E 118°39'  

Dump ship's entire track history